createdAt,value
2016-09-23T00:00:38.212Z,16.9
2016-09-23T00:01:38.155Z,16.93
2016-09-23T00:02:38.114Z,16.99
2016-09-23T00:03:37.962Z,16.83
2016-09-23T00:04:38.024Z,16.9
2016-09-23T00:05:38.020Z,16.85
2016-09-23T00:06:37.911Z,16.85
2016-09-23T00:07:37.874Z,16.8
2016-09-23T00:08:37.822Z,16.83
2016-09-23T00:09:37.818Z,16.85
2016-09-23T00:10:37.729Z,16.73
2016-09-23T00:11:37.361Z,16.6
2016-09-23T00:12:37.636Z,16.62
2016-09-23T00:13:37.588Z,16.62
2016-09-23T00:14:37.240Z,16.59
2016-09-23T00:15:37.081Z,16.6
2016-09-23T00:16:37.120Z,16.65
2016-09-23T00:17:37.592Z,16.55
2016-09-23T00:18:37.040Z,16.42
2016-09-23T00:19:36.999Z,16.44
2016-09-23T00:20:37.241Z,16.42
2016-09-23T00:21:37.205Z,16.42
2016-09-23T00:22:36.868Z,16.45
2016-09-23T00:23:36.805Z,16.5
2016-09-23T00:24:36.756Z,16.42
2016-09-23T00:25:37.024Z,16.26
2016-09-23T00:26:36.711Z,16.27
2016-09-23T00:27:36.917Z,16.25
2016-09-23T00:28:37.116Z,16.34
2016-09-23T00:29:37.025Z,16.16
2016-09-23T00:30:36.775Z,16.16
2016-09-23T00:31:36.720Z,16.12
2016-09-23T00:32:36.390Z,16.27
2016-09-23T00:33:36.322Z,16.3
2016-09-23T00:34:36.570Z,16.26
2016-09-23T00:35:36.528Z,16.31
2016-09-23T00:36:36.686Z,16.2
2016-09-23T00:37:36.433Z,16.23
2016-09-23T00:38:36.393Z,16.31
2016-09-23T00:39:36.231Z,16.26
2016-09-23T00:40:36.233Z,16.27
2016-09-23T00:41:36.260Z,16.31
2016-09-23T00:42:36.217Z,16.27
2016-09-23T00:43:36.136Z,16.3
2016-09-23T00:44:35.787Z,16.14
2016-09-23T00:45:35.748Z,16.2
2016-09-23T00:46:35.996Z,16.26
2016-09-23T00:47:35.955Z,16.25
2016-09-23T00:48:35.600Z,16.16
2016-09-23T00:49:35.863Z,16.2
2016-09-23T00:50:35.803Z,16.22
2016-09-23T00:51:35.752Z,16.18
2016-09-23T00:52:50.317Z,16.15
2016-09-23T00:53:35.666Z,16.2
2016-09-23T00:54:35.643Z,16.31
2016-09-23T00:55:34.954Z,16.31
2016-09-23T00:56:35.549Z,16.4
2016-09-23T00:57:35.504Z,16.4
2016-09-23T00:58:35.100Z,16.27
2016-09-23T00:59:35.374Z,16.23
2016-09-23T01:00:35.534Z,16.12
2016-09-23T01:01:35.477Z,16.22
2016-09-23T01:02:35.434Z,16.11
2016-09-23T01:03:35.073Z,16.23
2016-09-23T01:04:34.829Z,16.14
2016-09-23T01:05:34.463Z,16.2
2016-09-23T01:06:35.043Z,16.18
2016-09-23T01:07:34.998Z,16.16
2016-09-23T01:08:35.147Z,16.23
2016-09-23T01:09:34.590Z,16.15
2016-09-23T01:10:34.730Z,16.25
2016-09-23T01:11:34.492Z,16.33
2016-09-23T01:12:34.460Z,16.14
2016-09-23T01:13:34.393Z,16.16
2016-09-23T01:14:34.345Z,16.18
2016-09-23T01:15:34.324Z,16.14
2016-09-23T01:16:34.586Z,16.22
2016-09-23T01:17:34.757Z,16.26
2016-09-23T01:18:34.522Z,16.03
2016-09-23T01:19:34.453Z,15.96
2016-09-23T01:20:34.361Z,16.07
2016-09-23T01:21:34.522Z,16.01
2016-09-23T01:22:34.277Z,16.07
2016-09-23T01:23:33.981Z,16.11
2016-09-23T01:24:34.182Z,16.12
2016-09-23T01:25:33.815Z,16.11
2016-09-23T01:26:34.074Z,16
2016-09-23T01:27:34.243Z,16.03
2016-09-23T01:28:33.984Z,15.99
2016-09-23T01:29:34.085Z,16
2016-09-23T01:30:34.081Z,15.99
2016-09-23T01:31:33.732Z,15.94
2016-09-23T01:32:33.783Z,15.81
2016-09-23T01:33:33.741Z,15.97
2016-09-23T01:34:33.702Z,16.01
2016-09-23T01:35:33.619Z,16.09
2016-09-23T01:36:33.682Z,16.11
2016-09-23T01:37:33.745Z,16.12
2016-09-23T01:38:33.491Z,16.01
2016-09-23T01:39:33.140Z,16.04
2016-09-23T01:40:33.394Z,15.99
2016-09-23T01:41:33.042Z,15.89
2016-09-23T01:42:33.297Z,15.86
2016-09-23T01:43:33.246Z,15.75
2016-09-23T01:44:33.197Z,15.72
2016-09-23T01:45:33.197Z,15.72
2016-09-23T01:46:32.806Z,15.75
2016-09-23T01:47:33.076Z,15.78
2016-09-23T01:48:33.022Z,15.74
2016-09-23T01:49:32.963Z,15.84
2016-09-23T01:50:33.135Z,15.86
2016-09-23T01:51:32.920Z,15.85
2016-09-23T01:52:33.016Z,15.75
2016-09-23T01:53:32.472Z,15.82
2016-09-23T01:54:32.931Z,15.85
2016-09-23T01:55:32.360Z,15.7
2016-09-23T01:56:32.608Z,15.63
2016-09-23T01:57:32.783Z,15.86
2016-09-23T01:58:32.733Z,15.82
2016-09-23T01:59:32.174Z,15.84
2016-09-23T02:00:32.462Z,15.86
2016-09-23T02:01:32.089Z,15.81
2016-09-23T02:02:32.548Z,15.97
2016-09-23T02:03:32.571Z,15.99
2016-09-23T02:04:32.232Z,15.94
2016-09-23T02:05:32.190Z,15.85
2016-09-23T02:06:32.148Z,15.79
2016-09-23T02:07:32.093Z,15.97
2016-09-23T02:08:32.039Z,16
2016-09-23T02:09:32.199Z,16.03
2016-09-23T02:10:32.142Z,15.96
2016-09-23T02:11:31.884Z,16.01
2016-09-23T02:12:32.256Z,15.88
2016-09-23T02:13:31.927Z,15.82
2016-09-23T02:14:31.204Z,15.76
2016-09-23T02:15:31.696Z,15.85
2016-09-23T02:16:31.658Z,15.88
2016-09-23T02:17:32.012Z,15.88
2016-09-23T02:18:31.852Z,15.86
2016-09-23T02:19:31.523Z,15.79
2016-09-23T02:20:31.475Z,15.72
2016-09-23T02:21:31.105Z,15.59
2016-09-23T02:22:31.571Z,15.59
2016-09-23T02:23:31.767Z,15.52
2016-09-23T02:24:30.973Z,15.52
2016-09-23T02:25:31.231Z,15.59
2016-09-23T02:26:30.849Z,15.63
2016-09-23T02:27:31.320Z,15.6
2016-09-23T02:28:31.175Z,15.67
2016-09-23T02:29:30.915Z,15.68
2016-09-23T02:30:30.380Z,15.79
2016-09-23T02:31:30.617Z,15.78
2016-09-23T02:32:31.077Z,15.76
2016-09-23T02:33:30.838Z,15.78
2016-09-23T02:34:30.990Z,15.82
2016-09-23T02:35:30.750Z,15.84
2016-09-23T02:36:31.506Z,15.97
2016-09-23T02:37:30.694Z,15.85
2016-09-23T02:38:30.597Z,15.67
2016-09-23T02:39:30.578Z,15.52
2016-09-23T02:40:30.213Z,15.52
2016-09-23T02:41:30.146Z,15.57
2016-09-23T02:42:30.397Z,15.56
2016-09-23T02:43:30.343Z,15.41
2016-09-23T02:44:29.986Z,15.35
2016-09-23T02:45:30.442Z,15.38
2016-09-23T02:46:29.900Z,15.49
2016-09-23T02:47:30.153Z,15.59
2016-09-23T02:48:30.099Z,15.76
2016-09-23T02:49:29.948Z,15.82
2016-09-23T02:50:30.011Z,15.78
2016-09-23T02:51:29.971Z,15.75
2016-09-23T02:52:29.908Z,15.66
2016-09-23T02:53:30.103Z,15.48
2016-09-23T02:54:31.013Z,15.49
2016-09-23T02:55:29.962Z,15.52
2016-09-23T02:56:29.410Z,15.49
2016-09-23T02:57:29.253Z,15.48
2016-09-23T02:58:29.322Z,15.49
2016-09-23T02:59:29.771Z,15.48
2016-09-23T03:00:29.646Z,15.57
2016-09-23T03:01:29.481Z,15.54
2016-09-23T03:02:29.410Z,15.61
2016-09-23T03:03:29.474Z,15.54
2016-09-23T03:04:29.351Z,15.52
2016-09-23T03:05:29.009Z,15.52
2016-09-23T03:06:29.219Z,15.51
2016-09-23T03:07:29.376Z,15.48
2016-09-23T03:08:28.828Z,15.59
2016-09-23T03:09:29.287Z,15.6
2016-09-23T03:10:29.048Z,15.68
2016-09-23T03:11:28.676Z,15.78
2016-09-23T03:12:28.633Z,15.76
2016-09-23T03:13:28.582Z,16.01
2016-09-23T03:14:29.036Z,15.82
2016-09-23T03:15:28.695Z,15.76
2016-09-23T03:16:28.755Z,15.72
2016-09-23T03:17:28.585Z,15.56
2016-09-23T03:18:28.551Z,15.52
2016-09-23T03:19:28.596Z,15.42
2016-09-23T03:20:28.824Z,15.49
2016-09-23T03:21:28.523Z,15.39
2016-09-23T03:22:28.648Z,15.38
2016-09-23T03:23:28.291Z,15.39
2016-09-23T03:24:28.360Z,15.33
2016-09-23T03:25:28.304Z,15.3
2016-09-23T03:26:28.449Z,15.36
2016-09-23T03:27:28.404Z,15.33
2016-09-23T03:28:27.852Z,15.35
2016-09-23T03:29:28.321Z,15.45
2016-09-23T03:30:28.353Z,15.52
2016-09-23T03:31:27.708Z,15.54
2016-09-23T03:32:27.961Z,15.54
2016-09-23T03:33:27.910Z,15.41
2016-09-23T03:34:27.870Z,15.46
2016-09-23T03:35:27.529Z,15.48
2016-09-23T03:36:27.791Z,15.67
2016-09-23T03:37:27.724Z,15.6
2016-09-23T03:38:27.664Z,15.51
2016-09-23T03:39:27.323Z,15.38
2016-09-23T03:40:27.776Z,15.41
2016-09-23T03:41:26.908Z,15.39
2016-09-23T03:42:26.858Z,15.43
2016-09-23T03:43:27.644Z,15.48
2016-09-23T03:44:27.672Z,15.41
2016-09-23T03:45:27.320Z,15.41
2016-09-23T03:46:27.485Z,15.48
2016-09-23T03:47:27.525Z,15.41
2016-09-23T03:48:26.891Z,15.36
2016-09-23T03:49:27.367Z,15.27
2016-09-23T03:50:27.284Z,15.35
2016-09-23T03:51:26.735Z,15.28
2016-09-23T03:52:26.691Z,15.23
2016-09-23T03:53:27.155Z,15.28
2016-09-23T03:54:27.094Z,15.31
2016-09-23T03:55:27.530Z,15.35
2016-09-23T03:56:27.009Z,15.31
2016-09-23T03:57:27.349Z,15.38
2016-09-23T03:58:26.392Z,15.33
2016-09-23T03:59:26.642Z,15.36
2016-09-23T04:00:26.494Z,15.3
2016-09-23T04:01:26.573Z,15.45
2016-09-23T04:02:26.499Z,15.49
2016-09-23T04:03:26.509Z,15.56
2016-09-23T04:04:26.434Z,15.49
2016-09-23T04:05:26.349Z,15.48
2016-09-23T04:06:26.209Z,15.45
2016-09-23T04:07:26.159Z,15.45
2016-09-23T04:08:26.205Z,15.51
2016-09-23T04:09:25.861Z,15.51
2016-09-23T04:10:25.492Z,15.48
2016-09-23T04:11:25.959Z,15.45
2016-09-23T04:12:26.063Z,15.43
2016-09-23T04:13:25.700Z,15.42
2016-09-23T04:14:25.928Z,15.38
2016-09-23T04:15:25.877Z,15.23
2016-09-23T04:16:25.216Z,15.23
2016-09-23T04:17:25.768Z,15.2
2016-09-23T04:18:25.400Z,15.17
2016-09-23T04:19:25.053Z,15.15
2016-09-23T04:20:25.632Z,15.26
2016-09-23T04:21:25.260Z,15.35
2016-09-23T04:22:25.539Z,15.38
2016-09-23T04:23:25.174Z,15.45
2016-09-23T04:24:25.419Z,15.57
2016-09-23T04:25:25.072Z,15.51
2016-09-23T04:26:25.224Z,15.51
2016-09-23T04:27:24.664Z,15.51
2016-09-23T04:28:24.618Z,15.43
2016-09-23T04:29:25.187Z,15.39
2016-09-23T04:30:25.199Z,15.39
2016-09-23T04:31:25.098Z,15.38
2016-09-23T04:32:24.728Z,15.33
2016-09-23T04:33:24.997Z,15.33
2016-09-23T04:34:24.640Z,15.26
2016-09-23T04:35:25.147Z,15.15
2016-09-23T04:36:25.063Z,15.09
2016-09-23T04:37:24.588Z,14.99
2016-09-23T04:38:25.161Z,15.03
2016-09-23T04:39:24.390Z,15.01
2016-09-23T04:40:24.350Z,14.94
2016-09-23T04:41:24.803Z,14.91
2016-09-23T04:42:24.543Z,14.9
2016-09-23T04:43:24.392Z,14.81
2016-09-23T04:44:24.735Z,14.8
2016-09-23T04:45:24.413Z,14.91
2016-09-23T04:46:24.053Z,14.88
2016-09-23T04:47:24.313Z,14.81
2016-09-23T04:48:24.266Z,14.91
2016-09-23T04:49:24.215Z,14.99
2016-09-23T04:50:24.182Z,15.02
2016-09-23T04:51:24.115Z,14.9
2016-09-23T04:52:23.746Z,14.9
2016-09-23T04:53:24.222Z,14.91
2016-09-23T04:54:24.163Z,14.98
2016-09-23T04:55:23.939Z,15.02
2016-09-23T04:56:23.248Z,15.13
2016-09-23T04:57:24.049Z,15.13
2016-09-23T04:58:24.065Z,15.11
2016-09-23T04:59:23.729Z,15.03
2016-09-23T05:00:23.686Z,14.91
2016-09-23T05:01:23.331Z,14.98
2016-09-23T05:02:23.274Z,14.94
2016-09-23T05:03:23.754Z,15.05
2016-09-23T05:04:23.482Z,15.13
2016-09-23T05:05:23.428Z,15.2
2016-09-23T05:06:22.769Z,15.03
2016-09-23T05:07:23.530Z,15.03
2016-09-23T05:08:22.974Z,15.12
2016-09-23T05:09:23.238Z,15.21
2016-09-23T05:10:23.087Z,15.28
2016-09-23T05:11:23.134Z,15.11
2016-09-23T05:12:22.787Z,15.12
2016-09-23T05:13:23.050Z,15.01
2016-09-23T05:14:22.708Z,15.12
2016-09-23T05:15:22.880Z,15.12
2016-09-23T05:16:22.870Z,15.23
2016-09-23T05:17:22.545Z,15.33
2016-09-23T05:18:22.791Z,15.31
2016-09-23T05:19:22.727Z,15.35
2016-09-23T05:20:22.899Z,15.36
2016-09-23T05:21:22.339Z,15.24
2016-09-23T05:22:21.981Z,15.36
2016-09-23T05:23:22.568Z,15.26
2016-09-23T05:24:22.523Z,15.24
2016-09-23T05:25:22.379Z,15.12
2016-09-23T05:26:22.682Z,15.17
2016-09-23T05:27:22.043Z,15.23
2016-09-23T05:28:21.992Z,15.27
2016-09-23T05:29:22.272Z,15.27
2016-09-23T05:30:22.202Z,15.3
2016-09-23T05:31:22.066Z,15.26
2016-09-23T05:32:21.492Z,15.11
2016-09-23T05:33:21.936Z,14.93
2016-09-23T05:34:21.701Z,14.9
2016-09-23T05:35:21.659Z,14.91
2016-09-23T05:37:21.864Z,15.03
2016-09-23T05:38:21.730Z,15.06
2016-09-23T05:39:21.769Z,15.02
2016-09-23T05:40:21.397Z,15.03
2016-09-23T05:41:21.675Z,15.03
2016-09-23T05:42:21.309Z,14.99
2016-09-23T05:43:21.260Z,14.98
2016-09-23T05:44:21.523Z,14.98
2016-09-23T05:45:21.476Z,14.99
2016-09-23T05:46:21.106Z,14.95
2016-09-23T05:47:21.061Z,14.86
2016-09-23T05:48:20.708Z,14.9
2016-09-23T05:49:20.973Z,14.83
2016-09-23T05:50:21.226Z,14.78
2016-09-23T05:51:21.170Z,14.88
2016-09-23T05:52:21.132Z,14.78
2016-09-23T05:53:20.956Z,14.71
2016-09-23T05:54:21.012Z,14.6
2016-09-23T05:55:20.724Z,14.56
2016-09-23T05:56:21.005Z,14.72
2016-09-23T05:57:20.892Z,14.93
2016-09-23T05:58:20.912Z,14.88
2016-09-23T05:59:20.461Z,15.02
2016-09-23T06:00:20.418Z,15.03
2016-09-23T06:01:20.699Z,15.08
2016-09-23T06:02:20.639Z,15.01
2016-09-23T06:03:20.282Z,14.99
2016-09-23T06:04:19.941Z,14.86
2016-09-23T06:05:20.174Z,14.74
2016-09-23T06:06:20.117Z,14.83
2016-09-23T06:07:20.080Z,14.87
2016-09-23T06:08:20.240Z,15.06
2016-09-23T06:09:20.296Z,14.99
2016-09-23T06:10:19.934Z,15.01
2016-09-23T06:11:20.183Z,15.01
2016-09-23T06:12:20.338Z,14.93
2016-09-23T06:13:20.300Z,14.84
2016-09-23T06:14:20.124Z,14.98
2016-09-23T06:15:19.679Z,14.93
2016-09-23T06:16:19.934Z,15.02
2016-09-23T06:17:20.101Z,15.13
2016-09-23T06:18:19.234Z,15.12
2016-09-23T06:19:34.408Z,15.2
2016-09-23T06:20:19.760Z,15.23
2016-09-23T06:21:19.746Z,15.33
2016-09-23T06:22:19.346Z,15.42
2016-09-23T06:23:19.306Z,15.36
2016-09-23T06:24:19.602Z,15.33
2016-09-23T06:25:19.504Z,15.26
2016-09-23T06:26:19.151Z,15.12
2016-09-23T06:27:18.802Z,15.19
2016-09-23T06:28:19.359Z,15.11
2016-09-23T06:29:19.299Z,15.06
2016-09-23T06:30:19.274Z,15.12
2016-09-23T06:31:19.213Z,15.12
2016-09-23T06:32:18.862Z,15.11
2016-09-23T06:33:19.119Z,15.11
2016-09-23T06:34:18.790Z,15.26
2016-09-23T06:35:18.793Z,15.35
2016-09-23T06:36:18.985Z,15.28
2016-09-23T06:37:18.922Z,15.33
2016-09-23T06:38:18.571Z,15.41
2016-09-23T06:39:18.619Z,15.42
2016-09-23T06:40:18.754Z,15.45
2016-09-23T06:41:18.422Z,15.39
2016-09-23T06:42:18.074Z,15.39
2016-09-23T06:43:18.659Z,15.42
2016-09-23T06:44:18.268Z,15.48
2016-09-23T06:45:18.249Z,15.31
2016-09-23T06:46:18.697Z,15.36
2016-09-23T06:47:18.450Z,15.28
2016-09-23T06:48:18.373Z,15.27
2016-09-23T06:49:18.384Z,15.24
2016-09-23T06:50:18.172Z,15.27
2016-09-23T06:51:18.255Z,15.31
2016-09-23T06:52:17.896Z,15.27
2016-09-23T06:53:18.158Z,15.27
2016-09-23T06:54:18.085Z,15.26
2016-09-23T06:55:17.735Z,15.28
2016-09-23T06:56:17.675Z,15.33
2016-09-23T06:57:17.843Z,15.42
2016-09-23T06:58:18.103Z,15.48
2016-09-23T06:59:17.854Z,15.51
2016-09-23T07:00:17.783Z,15.54
2016-09-23T07:01:17.450Z,15.57
2016-09-23T07:02:17.400Z,15.52
2016-09-23T07:03:17.025Z,15.49
2016-09-23T07:04:17.612Z,15.63
2016-09-23T07:05:17.782Z,15.68
2016-09-23T07:06:17.513Z,15.86
2016-09-23T07:07:17.465Z,15.82
2016-09-23T07:08:17.432Z,15.86
2016-09-23T07:09:16.742Z,15.92
2016-09-23T07:10:17.310Z,15.78
2016-09-23T07:11:17.762Z,15.96
2016-09-23T07:12:17.209Z,15.86
2016-09-23T07:13:17.186Z,16.01
2016-09-23T07:14:17.120Z,15.99
2016-09-23T07:15:17.285Z,16.03
2016-09-23T07:16:16.740Z,16.14
2016-09-23T07:17:16.677Z,16.15
2016-09-23T07:18:16.930Z,16
2016-09-23T07:19:16.876Z,16.09
2016-09-23T07:20:16.835Z,16.2
2016-09-23T07:21:16.786Z,16.12
2016-09-23T07:22:16.955Z,16.14
2016-09-23T07:23:16.382Z,16.11
2016-09-23T07:24:16.545Z,16.07
2016-09-23T07:25:16.587Z,16.07
2016-09-23T07:26:16.554Z,16.07
2016-09-23T07:27:16.502Z,16.16
2016-09-23T07:28:16.168Z,16.18
2016-09-23T07:29:16.670Z,16.14
2016-09-23T07:30:16.057Z,16.26
2016-09-23T07:31:16.020Z,16.14
2016-09-23T07:32:15.845Z,16.07
2016-09-23T07:33:16.207Z,16.03
2016-09-23T07:34:16.244Z,16.18
2016-09-23T07:35:16.554Z,16.06
2016-09-23T07:36:15.764Z,16.15
2016-09-23T07:37:15.716Z,16.01
2016-09-23T07:38:15.661Z,16.07
2016-09-23T07:39:15.915Z,16.04
2016-09-23T07:40:15.890Z,16.03
2016-09-23T07:41:16.060Z,15.99
2016-09-23T07:42:16.476Z,15.94
2016-09-23T07:43:16.654Z,15.97
2016-09-23T07:44:15.573Z,15.99
2016-09-23T07:45:15.837Z,15.99
2016-09-23T07:46:15.266Z,15.85
2016-09-23T07:47:15.742Z,15.99
2016-09-23T07:48:15.540Z,15.92
2016-09-23T07:49:15.840Z,15.99
2016-09-23T07:50:15.107Z,16
2016-09-23T07:51:15.546Z,16.04
2016-09-23T07:52:15.488Z,16.06
2016-09-23T07:53:15.267Z,16.09
2016-09-23T07:54:14.899Z,16.25
2016-09-23T07:55:15.194Z,16.18
2016-09-23T07:56:15.126Z,16.16
2016-09-23T07:57:15.080Z,16.23
2016-09-23T07:58:14.700Z,16.33
2016-09-23T07:59:15.171Z,16.4
2016-09-23T08:00:14.909Z,16.42
2016-09-23T08:01:14.868Z,16.48
2016-09-23T08:02:15.835Z,16.55
2016-09-23T08:03:15.250Z,16.55
2016-09-23T08:04:14.650Z,16.59
2016-09-23T08:05:14.401Z,16.62
2016-09-23T08:06:14.678Z,16.55
2016-09-23T08:07:14.281Z,16.62
2016-09-23T08:08:14.307Z,16.52
2016-09-23T08:09:14.412Z,16.65
2016-09-23T08:10:14.529Z,16.73
2016-09-23T08:11:14.405Z,16.75
2016-09-23T08:12:14.029Z,16.73
2016-09-23T08:13:13.680Z,16.81
2016-09-23T08:14:14.253Z,16.86
2016-09-23T08:15:14.198Z,16.78
2016-09-23T08:16:13.845Z,16.86
2016-09-23T08:17:14.312Z,16.81
2016-09-23T08:18:14.268Z,16.86
2016-09-23T08:19:13.915Z,16.92
2016-09-23T08:20:13.635Z,16.96
2016-09-23T08:21:14.009Z,16.98
2016-09-23T08:22:13.873Z,17.04
2016-09-23T08:23:13.834Z,17.17
2016-09-23T08:24:13.787Z,17.3
2016-09-23T08:25:13.824Z,17.3
2016-09-23T08:26:13.360Z,17.44
2016-09-23T08:27:13.631Z,17.29
2016-09-23T08:28:13.577Z,17.29
2016-09-23T08:29:13.532Z,17.26
2016-09-23T08:30:13.714Z,17.33
2016-09-23T08:31:13.663Z,17.3
2016-09-23T08:32:13.282Z,17.25
2016-09-23T08:33:13.357Z,17.25
2016-09-23T08:34:13.386Z,17.26
2016-09-23T08:35:13.475Z,17.22
2016-09-23T08:36:13.814Z,17.22
2016-09-23T08:37:13.557Z,17.26
2016-09-23T08:38:13.330Z,17.25
2016-09-23T08:39:13.096Z,17.13
2016-09-23T08:40:13.240Z,17.23
2016-09-23T08:41:12.977Z,17.26
2016-09-23T08:42:13.588Z,17.26
2016-09-23T08:43:13.124Z,17.23
2016-09-23T08:44:14.057Z,17.38
2016-09-23T08:45:12.878Z,17.43
2016-09-23T08:46:12.829Z,17.48
2016-09-23T08:47:12.363Z,17.54
2016-09-23T08:48:13.066Z,17.47
2016-09-23T08:49:12.997Z,17.57
2016-09-23T08:50:12.435Z,17.57
2016-09-23T08:51:12.470Z,17.79
2016-09-23T08:52:12.471Z,17.85
2016-09-23T08:53:12.479Z,17.82
2016-09-23T08:54:12.635Z,17.91
2016-09-23T08:55:11.678Z,17.99
2016-09-23T08:56:12.248Z,17.99
2016-09-23T08:57:12.222Z,17.91
2016-09-23T08:58:11.541Z,17.82
2016-09-23T08:59:12.155Z,17.78
2016-09-23T09:00:12.278Z,17.71
2016-09-23T09:01:12.115Z,17.84
2016-09-23T09:02:12.051Z,17.84
2016-09-23T09:03:11.668Z,18
2016-09-23T09:04:11.577Z,18.18
2016-09-23T09:05:11.525Z,18.29
2016-09-23T09:06:12.060Z,18.33
2016-09-23T09:07:11.761Z,18.34
2016-09-23T09:08:11.270Z,18.44
2016-09-23T09:09:11.329Z,18.49
2016-09-23T09:10:11.646Z,18.52
2016-09-23T09:11:26.126Z,18.58
2016-09-23T09:12:10.885Z,18.55
2016-09-23T09:13:11.157Z,18.57
2016-09-23T09:14:11.437Z,18.47
2016-09-23T09:15:11.586Z,18.47
2016-09-23T09:16:11.317Z,18.49
2016-09-23T09:17:11.254Z,18.54
2016-09-23T09:18:11.420Z,18.59
2016-09-23T09:19:10.845Z,18.62
2016-09-23T09:20:11.152Z,18.68
2016-09-23T09:21:11.080Z,18.74
2016-09-23T09:22:10.945Z,18.74
2016-09-23T09:23:10.677Z,18.87
2016-09-23T09:24:10.948Z,18.97
2016-09-23T09:25:11.111Z,18.82
2016-09-23T09:26:10.775Z,18.77
2016-09-23T09:27:10.839Z,18.92
2016-09-23T09:28:10.777Z,18.94
2016-09-23T09:29:10.746Z,18.97
2016-09-23T09:30:10.740Z,18.99
2016-09-23T09:31:10.650Z,18.99
2016-09-23T09:32:10.269Z,19.02
2016-09-23T09:33:10.800Z,19.02
2016-09-23T09:34:10.725Z,19.2
2016-09-23T09:35:10.464Z,19.13
2016-09-23T09:36:10.280Z,19.24
2016-09-23T09:37:10.384Z,19.21
2016-09-23T09:38:10.306Z,19.25
2016-09-23T09:39:10.258Z,19.28
2016-09-23T09:40:10.206Z,19.25
2016-09-23T09:41:09.820Z,19.21
2016-09-23T09:42:09.821Z,19.28
2016-09-23T09:43:10.299Z,19.32
2016-09-23T09:44:10.030Z,19.21
2016-09-23T09:45:09.859Z,19.36
2016-09-23T09:46:09.989Z,19.35
2016-09-23T09:47:09.881Z,19.28
2016-09-23T09:48:09.841Z,19.33
2016-09-23T09:49:09.487Z,19.33
2016-09-23T09:50:09.421Z,19.35
2016-09-23T09:51:09.398Z,19.35
2016-09-23T09:52:09.873Z,19.35
2016-09-23T09:53:09.628Z,19.36
2016-09-23T09:54:09.241Z,19.33
2016-09-23T09:55:09.794Z,19.24
2016-09-23T09:56:09.754Z,19.36
2016-09-23T09:57:09.453Z,19.36
2016-09-23T09:58:09.376Z,19.32
2016-09-23T09:59:09.233Z,19.47
2016-09-23T10:00:09.509Z,19.4
2016-09-23T10:01:08.921Z,19.5
2016-09-23T10:02:08.871Z,19.5
2016-09-23T10:03:09.173Z,19.39
2016-09-23T10:04:08.792Z,19.5
2016-09-23T10:05:08.746Z,19.57
2016-09-23T10:06:09.017Z,19.46
2016-09-23T10:07:08.985Z,19.57
2016-09-23T10:08:08.933Z,19.68
2016-09-23T10:09:08.887Z,19.72
2016-09-23T10:10:08.838Z,19.83
2016-09-23T10:11:08.811Z,19.84
2016-09-23T10:12:08.945Z,19.87
2016-09-23T10:13:08.784Z,19.86
2016-09-23T10:14:08.962Z,19.87
2016-09-23T10:15:08.806Z,20
2016-09-23T10:16:08.551Z,19.95
2016-09-23T10:17:08.399Z,19.95
2016-09-23T10:18:08.675Z,20.02
2016-09-23T10:19:08.605Z,19.98
2016-09-23T10:20:08.373Z,20.03
2016-09-23T10:21:08.322Z,20.08
2016-09-23T10:22:08.271Z,20.08
2016-09-23T10:23:08.241Z,20.13
2016-09-23T10:24:08.188Z,20.18
2016-09-23T10:25:08.159Z,20.24
2016-09-23T10:26:08.095Z,20.24
2016-09-23T10:27:07.431Z,20.24
2016-09-23T10:28:08.009Z,20.24
2016-09-23T10:29:07.951Z,20.25
2016-09-23T10:30:07.916Z,20.28
2016-09-23T10:31:07.570Z,20.31
2016-09-23T10:32:07.812Z,20.35
2016-09-23T10:33:08.179Z,20.47
2016-09-23T10:34:07.420Z,20.39
2016-09-23T10:35:07.693Z,20.43
2016-09-23T10:36:07.531Z,20.38
2016-09-23T10:37:07.597Z,20.39
2016-09-23T10:38:07.539Z,20.49
2016-09-23T10:39:07.214Z,20.51
2016-09-23T10:40:07.188Z,20.54
2016-09-23T10:41:07.410Z,20.46
2016-09-23T10:42:07.383Z,20.61
2016-09-23T10:43:07.321Z,20.68
2016-09-23T10:44:07.269Z,20.64
2016-09-23T10:45:06.936Z,20.66
2016-09-23T10:46:06.899Z,20.59
2016-09-23T10:47:07.189Z,20.69
2016-09-23T10:48:06.815Z,20.71
2016-09-23T10:49:07.248Z,20.68
2016-09-23T10:50:07.098Z,20.68
2016-09-23T10:51:06.372Z,20.5
2016-09-23T10:52:06.954Z,20.49
2016-09-23T10:53:06.941Z,20.5
2016-09-23T10:54:06.820Z,20.65
2016-09-23T10:55:06.773Z,20.58
2016-09-23T10:56:06.432Z,20.69
2016-09-23T10:57:06.702Z,20.61
2016-09-23T10:58:06.057Z,20.71
2016-09-23T10:59:06.617Z,20.64
2016-09-23T11:00:06.255Z,20.68
2016-09-23T11:01:06.519Z,20.71
2016-09-23T11:02:06.711Z,20.68
2016-09-23T11:03:06.504Z,20.66
2016-09-23T11:04:06.078Z,20.66
2016-09-23T11:05:06.063Z,20.64
2016-09-23T11:06:06.295Z,20.62
2016-09-23T11:07:06.253Z,20.68
2016-09-23T11:08:06.053Z,20.77
2016-09-23T11:09:06.261Z,20.79
2016-09-23T11:10:05.821Z,20.84
2016-09-23T11:11:05.835Z,20.87
2016-09-23T11:12:05.751Z,20.99
2016-09-23T11:13:05.678Z,21.02
2016-09-23T11:14:05.928Z,21.05
2016-09-23T11:15:05.582Z,20.99
2016-09-23T11:16:05.844Z,20.93
2016-09-23T11:17:05.788Z,20.91
2016-09-23T11:18:05.136Z,20.87
2016-09-23T11:19:05.695Z,20.84
2016-09-23T11:20:05.558Z,20.96
2016-09-23T11:21:05.290Z,20.98
2016-09-23T11:22:05.260Z,20.89
2016-09-23T11:23:05.215Z,20.96
2016-09-23T11:24:05.452Z,20.96
2016-09-23T11:25:05.113Z,20.9
2016-09-23T11:26:05.072Z,20.89
2016-09-23T11:27:05.340Z,20.98
2016-09-23T11:28:04.983Z,21.05
2016-09-23T11:29:05.261Z,20.99
2016-09-23T11:30:04.887Z,21.05
2016-09-23T11:31:05.136Z,21.05
2016-09-23T11:32:05.510Z,21.09
2016-09-23T11:33:04.795Z,21.14
2016-09-23T11:34:05.019Z,21.17
2016-09-23T11:35:05.031Z,21.16
2016-09-23T11:36:05.120Z,21.16
2016-09-23T11:37:04.905Z,21.29
2016-09-23T11:38:04.834Z,21.38
2016-09-23T11:39:04.685Z,21.3
2016-09-23T11:40:04.758Z,21.19
2016-09-23T11:41:05.140Z,21.16
2016-09-23T11:42:04.645Z,21.09
2016-09-23T11:43:04.632Z,21.16
2016-09-23T11:44:04.070Z,21.17
2016-09-23T11:45:04.580Z,21.19
2016-09-23T11:46:04.822Z,21.16
2016-09-23T11:47:04.513Z,21.2
2016-09-23T11:48:04.480Z,21.17
2016-09-23T11:49:04.036Z,21.27
2016-09-23T11:50:04.323Z,21.35
2016-09-23T11:51:03.964Z,21.3
2016-09-23T11:52:04.216Z,21.41
2016-09-23T11:53:04.285Z,21.53
2016-09-23T11:54:04.224Z,21.51
2016-09-23T11:55:04.149Z,21.6
2016-09-23T11:56:03.742Z,21.54
2016-09-23T11:57:04.000Z,21.61
2016-09-23T11:58:03.930Z,21.53
2016-09-23T11:59:03.627Z,21.6
2016-09-23T12:00:04.067Z,21.64
2016-09-23T12:01:03.817Z,21.76
2016-09-23T12:02:03.450Z,21.92
2016-09-23T12:03:03.429Z,21.97
2016-09-23T12:04:03.667Z,22.06
2016-09-23T12:05:03.668Z,22.09
2016-09-23T12:06:03.269Z,22.07
2016-09-23T12:07:03.558Z,22.07
2016-09-23T12:08:03.495Z,21.98
2016-09-23T12:09:03.854Z,22.04
2016-09-23T12:10:03.609Z,22.07
2016-09-23T12:11:03.763Z,22.1
2016-09-23T12:12:03.002Z,22.12
2016-09-23T12:13:02.993Z,22.1
2016-09-23T12:14:03.242Z,22.19
2016-09-23T12:15:02.895Z,22.17
2016-09-23T12:16:02.860Z,22.17
2016-09-23T12:17:03.491Z,22.13
2016-09-23T12:18:03.060Z,22.25
2016-09-23T12:19:03.208Z,22.14
2016-09-23T12:20:02.961Z,22.14
2016-09-23T12:21:02.625Z,22.31
2016-09-23T12:22:02.873Z,22.34
2016-09-23T12:23:03.034Z,22.47
2016-09-23T12:24:04.861Z,22.6
2016-09-23T12:25:03.292Z,22.59
2016-09-23T12:26:02.438Z,22.67
2016-09-23T12:27:02.799Z,22.82
2016-09-23T12:28:02.001Z,22.83
2016-09-23T12:29:02.778Z,22.87
2016-09-23T12:30:02.542Z,22.96
2016-09-23T12:31:03.353Z,23.04
2016-09-23T12:32:02.373Z,23.04
2016-09-23T12:33:02.156Z,23.02
2016-09-23T12:34:02.357Z,22.97
2016-09-23T12:35:02.341Z,23.04
2016-09-23T12:36:02.274Z,23.02
2016-09-23T12:37:02.289Z,23.01
2016-09-23T12:38:02.127Z,22.99
2016-09-23T12:39:02.147Z,22.86
2016-09-23T12:40:01.986Z,22.82
2016-09-23T12:41:02.056Z,22.82
2016-09-23T12:42:01.898Z,22.72
2016-09-23T12:43:01.648Z,22.56
2016-09-23T12:44:01.716Z,22.59
2016-09-23T12:45:01.456Z,22.64
2016-09-23T12:46:01.899Z,22.53
2016-09-23T12:47:01.788Z,22.52
2016-09-23T12:48:01.750Z,22.46
2016-09-23T12:49:01.705Z,22.35
2016-09-23T12:50:01.650Z,22.25
2016-09-23T12:51:01.858Z,22.19
2016-09-23T12:52:01.773Z,22.13
2016-09-23T12:53:01.223Z,22.1
2016-09-23T12:54:01.460Z,22.1
2016-09-23T12:55:01.425Z,22.06
2016-09-23T12:56:01.373Z,22.01